VISIB

Not for real navigation. The accuracy of this data is not assured See disclaimer for more information



ICAO NAME COUNTRY WIND Kt GUST Kt VIS m TEMP/DEW C BARO METAR
LPPT Lisboa / Portela Portugal 4 0 100 8/8 30.15 LPPT 170900Z 07004KT 360V110 0100 R21/0225N FG VV001 08/08 Q1021
ESMT Halmstad Swedish Air Force Bas Sweden 5 0 150 4/3 30.15 ESMT 170850Z AUTO 24005KT 0150 R01/0400N R19/0375N FG VV001 04/03 Q1021
ESGG Goteborg / Landvetter Sweden 7 0 150 3/2 30.09 ESGG 170850Z 20007KT 0150 R03/0350N R21/0325N FG VV002 03/02 Q1019 R21/29//95
OIKO 4 0 200 19/18 29.98 OIKO 170800Z 33004KT 0200 +TSRA SCT015 BKN030CB BKN080 19/18 Q1015 A2998 RESHRA
EKRN Roenne Denmark 9 0 200 4/4 30.21 EKRN 170850Z AUTO 30009KT 0200 R11/0550N R29/0600N FG VV002 04/04 Q1023

Show more